Three Mile Bay, New York
Current Conditions -  °F | °C
As of 12:56 AM on Tuesday 21 Oct 2014 (Local Time) from KART Reporting Station
Light Rain Light Rain  
Wind Chill: 52°   Ceiling: 3500
Heat Index: 52°   Visibility: 10mi
Dew Point: 41°   Wind: 6mph
Humidity: 66%   Direction: 200°SSW
Pressure: 29.85"   Gusts: NA
Location:  44.08°N, 76.2°W
Report Text: KART 210456Z AUTO 20005KT 10SM -RA OVC035 11/05 A2985 RMK AO2 RAB31 SLP108 P0000 T01110050 401281006
Loading
Personal Weather Stations






























Interactive Weather Map
Tropical Storm Tracking
New forecast layout! Learn more

10-Day Weather Forecast

Advertisements
Track Severe Weather on mobile